sensor_id;sensor_type;location;lat;lon;timestamp;P1;durP1;ratioP1;P2;durP2;ratioP2
73816;SDS011;62146;53.232;-1.304;2022-10-31T00:01:08;13.82;;;3.17;;
73816;SDS011;62146;53.232;-1.304;2022-10-31T00:03:35;9.25;;;2.40;;
73816;SDS011;62146;53.232;-1.304;2022-10-31T00:06:02;9.27;;;2.43;;
73816;SDS011;62146;53.232;-1.304;2022-10-31T00:08:29;10.98;;;2.63;;
73816;SDS011;62146;53.232;-1.304;2022-10-31T00:10:55;11.10;;;2.70;;
73816;SDS011;62146;53.232;-1.304;2022-10-31T00:13:22;13.52;;;3.40;;
73816;SDS011;62146;53.232;-1.304;2022-10-31T00:15:48;11.68;;;2.50;;
73816;SDS011;62146;53.232;-1.304;2022-10-31T00:18:15;12.47;;;3.20;;
73816;SDS011;62146;53.232;-1.304;2022-10-31T00:20:41;12.18;;;2.97;;
73816;SDS011;62146;53.232;-1.304;2022-10-31T00:23:08;14.68;;;3.60;;
73816;SDS011;62146;53.232;-1.304;2022-10-31T00:25:37;12.80;;;3.40;;
73816;SDS011;62146;53.232;-1.304;2022-10-31T00:28:06;12.73;;;3.95;;
73816;SDS011;62146;53.232;-1.304;2022-10-31T00:30:33;15.03;;;4.00;;
73816;SDS011;62146;53.232;-1.304;2022-10-31T00:33:00;14.23;;;3.42;;
73816;SDS011;62146;53.232;-1.304;2022-10-31T00:35:29;15.13;;;3.80;;
73816;SDS011;62146;53.232;-1.304;2022-10-31T00:37:55;12.20;;;3.22;;
73816;SDS011;62146;53.232;-1.304;2022-10-31T00:40:22;12.88;;;3.30;;
73816;SDS011;62146;53.232;-1.304;2022-10-31T00:42:48;13.00;;;3.87;;
73816;SDS011;62146;53.232;-1.304;2022-10-31T00:45:15;14.85;;;3.80;;
73816;SDS011;62146;53.232;-1.304;2022-10-31T00:47:41;11.30;;;3.10;;
73816;SDS011;62146;53.232;-1.304;2022-10-31T00:50:08;11.23;;;3.28;;
73816;SDS011;62146;53.232;-1.304;2022-10-31T00:52:34;11.00;;;3.03;;
73816;SDS011;62146;53.232;-1.304;2022-10-31T00:55:01;14.03;;;4.10;;
73816;SDS011;62146;53.232;-1.304;2022-10-31T00:57:28;16.90;;;3.50;;
73816;SDS011;62146;53.232;-1.304;2022-10-31T00:59:54;15.85;;;3.72;;
73816;SDS011;62146;53.232;-1.304;2022-10-31T01:02:21;13.30;;;3.80;;
73816;SDS011;62146;53.232;-1.304;2022-10-31T01:04:48;15.65;;;4.00;;
73816;SDS011;62146;53.232;-1.304;2022-10-31T01:07:14;15.27;;;3.93;;
73816;SDS011;62146;53.232;-1.304;2022-10-31T01:09:40;13.68;;;3.50;;
73816;SDS011;62146;53.232;-1.304;2022-10-31T01:12:07;14.32;;;3.53;;
73816;SDS011;62146;53.232;-1.304;2022-10-31T01:14:34;13.98;;;3.20;;
73816;SDS011;62146;53.232;-1.304;2022-10-31T01:17:01;19.08;;;3.55;;
73816;SDS011;62146;53.232;-1.304;2022-10-31T01:19:27;15.23;;;3.70;;
73816;SDS011;62146;53.232;-1.304;2022-10-31T01:21:54;14.02;;;3.78;;
73816;SDS011;62146;53.232;-1.304;2022-10-31T01:24:21;16.23;;;3.63;;
73816;SDS011;62146;53.232;-1.304;2022-10-31T01:26:48;9.60;;;2.97;;
73816;SDS011;62146;53.232;-1.304;2022-10-31T01:29:14;11.43;;;3.33;;
73816;SDS011;62146;53.232;-1.304;2022-10-31T01:31:41;9.23;;;2.90;;
73816;SDS011;62146;53.232;-1.304;2022-10-31T01:34:08;11.98;;;2.95;;
73816;SDS011;62146;53.232;-1.304;2022-10-31T01:36:41;15.60;;;3.17;;
73816;SDS011;62146;53.232;-1.304;2022-10-31T01:39:12;12.10;;;3.05;;
73816;SDS011;62146;53.232;-1.304;2022-10-31T01:41:42;11.77;;;2.63;;
73816;SDS011;62146;53.232;-1.304;2022-10-31T01:49:34;11.25;;;2.40;;
73816;SDS011;62146;53.232;-1.304;2022-10-31T01:52:04;11.35;;;2.58;;
73816;SDS011;62146;53.232;-1.304;2022-10-31T01:54:39;14.43;;;3.53;;
73816;SDS011;62146;53.232;-1.304;2022-10-31T01:57:10;11.93;;;3.10;;
73816;SDS011;62146;53.232;-1.304;2022-10-31T01:59:40;13.55;;;2.85;;
73816;SDS011;62146;53.232;-1.304;2022-10-31T02:02:12;14.57;;;3.10;;
73816;SDS011;62146;53.232;-1.304;2022-10-31T02:04:41;12.38;;;3.00;;
73816;SDS011;62146;53.232;-1.304;2022-10-31T02:07:10;11.85;;;3.10;;
73816;SDS011;62146;53.232;-1.304;2022-10-31T02:09:39;11.27;;;2.73;;
73816;SDS011;62146;53.232;-1.304;2022-10-31T02:12:06;11.35;;;2.60;;
73816;SDS011;62146;53.232;-1.304;2022-10-31T02:14:36;12.77;;;2.70;;
73816;SDS011;62146;53.232;-1.304;2022-10-31T02:17:03;13.55;;;2.92;;
73816;SDS011;62146;53.232;-1.304;2022-10-31T02:22:33;14.10;;;2.60;;
73816;SDS011;62146;53.232;-1.304;2022-10-31T02:25:22;13.05;;;2.85;;
73816;SDS011;62146;53.232;-1.304;2022-10-31T02:33:51;15.50;;;2.80;;
73816;SDS011;62146;53.232;-1.304;2022-10-31T02:36:23;11.57;;;2.10;;
73816;SDS011;62146;53.232;-1.304;2022-10-31T02:39:02;14.45;;;2.97;;
73816;SDS011;62146;53.232;-1.304;2022-10-31T02:44:38;14.73;;;2.63;;
73816;SDS011;62146;53.232;-1.304;2022-10-31T02:47:12;8.90;;;2.30;;
73816;SDS011;62146;53.232;-1.304;2022-10-31T02:52:29;11.43;;;2.30;;
73816;SDS011;62146;53.232;-1.304;2022-10-31T02:54:58;14.25;;;2.65;;
73816;SDS011;62146;53.232;-1.304;2022-10-31T02:57:28;12.85;;;2.50;;
73816;SDS011;62146;53.232;-1.304;2022-10-31T03:00:00;9.48;;;2.53;;
73816;SDS011;62146;53.232;-1.304;2022-10-31T03:05:51;17.70;;;3.17;;
73816;SDS011;62146;53.232;-1.304;2022-10-31T03:11:21;14.70;;;2.50;;
73816;SDS011;62146;53.232;-1.304;2022-10-31T03:13:59;12.73;;;2.80;;
73816;SDS011;62146;53.232;-1.304;2022-10-31T03:16:39;10.77;;;2.37;;
73816;SDS011;62146;53.232;-1.304;2022-10-31T03:19:16;16.02;;;2.97;;
73816;SDS011;62146;53.232;-1.304;2022-10-31T03:21:57;16.30;;;2.60;;
73816;SDS011;62146;53.232;-1.304;2022-10-31T03:24:31;12.55;;;2.45;;
73816;SDS011;62146;53.232;-1.304;2022-10-31T03:27:02;13.40;;;2.42;;
73816;SDS011;62146;53.232;-1.304;2022-10-31T03:29:34;9.20;;;2.10;;
73816;SDS011;62146;53.232;-1.304;2022-10-31T03:32:07;13.90;;;2.70;;
73816;SDS011;62146;53.232;-1.304;2022-10-31T03:34:38;10.45;;;2.28;;
73816;SDS011;62146;53.232;-1.304;2022-10-31T03:37:08;12.70;;;2.63;;
73816;SDS011;62146;53.232;-1.304;2022-10-31T03:39:40;12.68;;;2.25;;
73816;SDS011;62146;53.232;-1.304;2022-10-31T03:42:17;13.00;;;2.70;;
73816;SDS011;62146;53.232;-1.304;2022-10-31T03:44:49;11.13;;;2.00;;
73816;SDS011;62146;53.232;-1.304;2022-10-31T03:47:21;8.63;;;2.20;;
73816;SDS011;62146;53.232;-1.304;2022-10-31T03:49:48;15.65;;;2.78;;
73816;SDS011;62146;53.232;-1.304;2022-10-31T03:52:19;14.73;;;2.42;;
73816;SDS011;62146;53.232;-1.304;2022-10-31T03:55:05;10.70;;;2.40;;
73816;SDS011;62146;53.232;-1.304;2022-10-31T03:57:38;9.80;;;2.22;;
73816;SDS011;62146;53.232;-1.304;2022-10-31T04:00:13;12.25;;;2.47;;
73816;SDS011;62146;53.232;-1.304;2022-10-31T04:02:46;14.20;;;2.72;;
73816;SDS011;62146;53.232;-1.304;2022-10-31T04:05:18;12.43;;;3.08;;
73816;SDS011;62146;53.232;-1.304;2022-10-31T04:07:46;11.33;;;2.60;;
73816;SDS011;62146;53.232;-1.304;2022-10-31T04:10:16;14.20;;;2.20;;
73816;SDS011;62146;53.232;-1.304;2022-10-31T04:12:44;13.57;;;2.70;;
73816;SDS011;62146;53.232;-1.304;2022-10-31T04:15:16;12.13;;;2.50;;
73816;SDS011;62146;53.232;-1.304;2022-10-31T04:17:46;9.55;;;2.08;;
73816;SDS011;62146;53.232;-1.304;2022-10-31T04:20:16;13.03;;;2.50;;
73816;SDS011;62146;53.232;-1.304;2022-10-31T04:22:43;9.85;;;1.92;;
73816;SDS011;62146;53.232;-1.304;2022-10-31T04:25:10;15.85;;;2.55;;
73816;SDS011;62146;53.232;-1.304;2022-10-31T04:27:36;12.35;;;2.08;;
73816;SDS011;62146;53.232;-1.304;2022-10-31T04:30:03;10.82;;;2.40;;
73816;SDS011;62146;53.232;-1.304;2022-10-31T04:32:30;12.97;;;2.47;;
73816;SDS011;62146;53.232;-1.304;2022-10-31T04:34:56;11.50;;;2.50;;
73816;SDS011;62146;53.232;-1.304;2022-10-31T04:37:23;11.50;;;2.90;;
73816;SDS011;62146;53.232;-1.304;2022-10-31T04:39:49;11.82;;;2.28;;
73816;SDS011;62146;53.232;-1.304;2022-10-31T04:42:16;12.13;;;2.00;;
73816;SDS011;62146;53.232;-1.304;2022-10-31T04:44:42;11.40;;;2.20;;
73816;SDS011;62146;53.232;-1.304;2022-10-31T04:47:09;9.15;;;2.28;;
73816;SDS011;62146;53.232;-1.304;2022-10-31T04:49:35;10.35;;;2.15;;
73816;SDS011;62146;53.232;-1.304;2022-10-31T04:52:02;12.65;;;3.03;;
73816;SDS011;62146;53.232;-1.304;2022-10-31T04:54:29;10.38;;;2.28;;
73816;SDS011;62146;53.232;-1.304;2022-10-31T04:56:55;12.47;;;2.27;;
73816;SDS011;62146;53.232;-1.304;2022-10-31T04:59:22;10.52;;;2.15;;
73816;SDS011;62146;53.232;-1.304;2022-10-31T05:01:49;10.90;;;2.13;;
73816;SDS011;62146;53.232;-1.304;2022-10-31T05:04:15;11.88;;;2.47;;
73816;SDS011;62146;53.232;-1.304;2022-10-31T05:06:42;10.77;;;2.25;;
73816;SDS011;62146;53.232;-1.304;2022-10-31T05:09:09;10.80;;;2.00;;
73816;SDS011;62146;53.232;-1.304;2022-10-31T05:11:35;13.45;;;2.50;;
73816;SDS011;62146;53.232;-1.304;2022-10-31T05:14:02;9.02;;;1.90;;
73816;SDS011;62146;53.232;-1.304;2022-10-31T05:16:28;8.30;;;1.90;;
73816;SDS011;62146;53.232;-1.304;2022-10-31T05:18:55;9.02;;;2.03;;
73816;SDS011;62146;53.232;-1.304;2022-10-31T05:21:21;7.50;;;2.10;;
73816;SDS011;62146;53.232;-1.304;2022-10-31T05:23:48;10.73;;;2.13;;
73816;SDS011;62146;53.232;-1.304;2022-10-31T05:26:14;13.80;;;2.30;;
73816;SDS011;62146;53.232;-1.304;2022-10-31T05:28:42;8.00;;;2.08;;
73816;SDS011;62146;53.232;-1.304;2022-10-31T05:31:09;12.48;;;2.65;;
73816;SDS011;62146;53.232;-1.304;2022-10-31T05:33:35;14.00;;;2.47;;
73816;SDS011;62146;53.232;-1.304;2022-10-31T05:36:02;12.32;;;2.03;;
73816;SDS011;62146;53.232;-1.304;2022-10-31T05:38:29;8.43;;;2.00;;
73816;SDS011;62146;53.232;-1.304;2022-10-31T05:40:55;14.55;;;2.47;;
73816;SDS011;62146;53.232;-1.304;2022-10-31T05:43:27;7.55;;;2.30;;
73816;SDS011;62146;53.232;-1.304;2022-10-31T05:45:55;7.70;;;1.77;;
73816;SDS011;62146;53.232;-1.304;2022-10-31T05:48:22;9.77;;;2.15;;
73816;SDS011;62146;53.232;-1.304;2022-10-31T05:50:49;10.63;;;2.05;;
73816;SDS011;62146;53.232;-1.304;2022-10-31T05:53:16;8.57;;;2.00;;
73816;SDS011;62146;53.232;-1.304;2022-10-31T05:55:43;9.50;;;1.77;;
73816;SDS011;62146;53.232;-1.304;2022-10-31T05:58:10;13.03;;;2.90;;
73816;SDS011;62146;53.232;-1.304;2022-10-31T06:00:37;10.75;;;2.25;;
73816;SDS011;62146;53.232;-1.304;2022-10-31T06:03:04;9.55;;;1.95;;
73816;SDS011;62146;53.232;-1.304;2022-10-31T06:05:37;9.93;;;2.03;;
73816;SDS011;62146;53.232;-1.304;2022-10-31T06:08:04;12.07;;;2.42;;
73816;SDS011;62146;53.232;-1.304;2022-10-31T06:10:31;10.93;;;2.30;;
73816;SDS011;62146;53.232;-1.304;2022-10-31T06:12:57;11.00;;;2.10;;
73816;SDS011;62146;53.232;-1.304;2022-10-31T06:15:24;10.75;;;2.13;;
73816;SDS011;62146;53.232;-1.304;2022-10-31T06:17:57;9.75;;;2.30;;
73816;SDS011;62146;53.232;-1.304;2022-10-31T06:20:25;10.38;;;1.95;;
73816;SDS011;62146;53.232;-1.304;2022-10-31T06:22:52;12.47;;;2.20;;
73816;SDS011;62146;53.232;-1.304;2022-10-31T06:25:18;10.10;;;1.80;;
73816;SDS011;62146;53.232;-1.304;2022-10-31T06:27:45;9.63;;;2.00;;
73816;SDS011;62146;53.232;-1.304;2022-10-31T06:30:11;15.50;;;2.50;;
73816;SDS011;62146;53.232;-1.304;2022-10-31T06:32:38;11.23;;;2.00;;
73816;SDS011;62146;53.232;-1.304;2022-10-31T06:35:05;12.37;;;2.43;;
73816;SDS011;62146;53.232;-1.304;2022-10-31T06:37:32;10.57;;;2.00;;
73816;SDS011;62146;53.232;-1.304;2022-10-31T06:39:58;12.40;;;2.25;;
73816;SDS011;62146;53.232;-1.304;2022-10-31T06:42:25;9.93;;;1.92;;
73816;SDS011;62146;53.232;-1.304;2022-10-31T06:44:51;9.88;;;2.20;;
73816;SDS011;62146;53.232;-1.304;2022-10-31T06:47:18;10.57;;;1.93;;
73816;SDS011;62146;53.232;-1.304;2022-10-31T06:49:44;11.10;;;2.80;;
73816;SDS011;62146;53.232;-1.304;2022-10-31T06:52:11;12.57;;;2.45;;
73816;SDS011;62146;53.232;-1.304;2022-10-31T06:54:37;11.15;;;2.05;;
73816;SDS011;62146;53.232;-1.304;2022-10-31T06:57:04;8.13;;;2.00;;
73816;SDS011;62146;53.232;-1.304;2022-10-31T06:59:30;11.83;;;2.23;;
73816;SDS011;62146;53.232;-1.304;2022-10-31T07:01:57;9.65;;;2.08;;
73816;SDS011;62146;53.232;-1.304;2022-10-31T07:04:24;8.30;;;2.15;;
73816;SDS011;62146;53.232;-1.304;2022-10-31T07:06:51;9.57;;;1.90;;
73816;SDS011;62146;53.232;-1.304;2022-10-31T07:11:48;9.07;;;1.90;;
73816;SDS011;62146;53.232;-1.304;2022-10-31T07:14:17;9.13;;;1.90;;
73816;SDS011;62146;53.232;-1.304;2022-10-31T07:16:47;7.68;;;1.92;;
73816;SDS011;62146;53.232;-1.304;2022-10-31T07:19:14;7.55;;;1.80;;
73816;SDS011;62146;53.232;-1.304;2022-10-31T07:21:41;10.63;;;1.90;;
73816;SDS011;62146;53.232;-1.304;2022-10-31T07:24:07;7.87;;;1.83;;
73816;SDS011;62146;53.232;-1.304;2022-10-31T07:26:34;8.93;;;1.58;;
73816;SDS011;62146;53.232;-1.304;2022-10-31T07:29:00;11.05;;;2.03;;
73816;SDS011;62146;53.232;-1.304;2022-10-31T07:31:27;11.57;;;2.50;;
73816;SDS011;62146;53.232;-1.304;2022-10-31T07:33:53;10.20;;;2.20;;
73816;SDS011;62146;53.232;-1.304;2022-10-31T07:36:20;10.70;;;2.00;;
73816;SDS011;62146;53.232;-1.304;2022-10-31T07:38:46;10.25;;;2.03;;
73816;SDS011;62146;53.232;-1.304;2022-10-31T07:41:13;11.15;;;1.92;;
73816;SDS011;62146;53.232;-1.304;2022-10-31T07:43:39;10.82;;;2.00;;
73816;SDS011;62146;53.232;-1.304;2022-10-31T07:46:06;7.72;;;1.88;;
73816;SDS011;62146;53.232;-1.304;2022-10-31T07:48:32;9.37;;;2.27;;
73816;SDS011;62146;53.232;-1.304;2022-10-31T07:50:59;8.98;;;2.22;;
73816;SDS011;62146;53.232;-1.304;2022-10-31T07:53:25;8.25;;;1.90;;
73816;SDS011;62146;53.232;-1.304;2022-10-31T07:55:52;10.90;;;2.22;;
73816;SDS011;62146;53.232;-1.304;2022-10-31T07:58:18;11.25;;;2.15;;
73816;SDS011;62146;53.232;-1.304;2022-10-31T08:00:45;7.93;;;2.13;;
73816;SDS011;62146;53.232;-1.304;2022-10-31T08:03:14;10.70;;;2.08;;
73816;SDS011;62146;53.232;-1.304;2022-10-31T08:05:43;11.57;;;2.17;;
73816;SDS011;62146;53.232;-1.304;2022-10-31T08:08:13;10.18;;;2.65;;
73816;SDS011;62146;53.232;-1.304;2022-10-31T08:10:41;14.25;;;2.28;;
73816;SDS011;62146;53.232;-1.304;2022-10-31T08:13:09;12.03;;;2.30;;
73816;SDS011;62146;53.232;-1.304;2022-10-31T08:15:37;12.20;;;2.58;;
73816;SDS011;62146;53.232;-1.304;2022-10-31T08:18:11;7.88;;;2.20;;
73816;SDS011;62146;53.232;-1.304;2022-10-31T08:20:40;11.63;;;2.17;;
73816;SDS011;62146;53.232;-1.304;2022-10-31T08:23:08;8.02;;;2.05;;
73816;SDS011;62146;53.232;-1.304;2022-10-31T08:25:36;14.57;;;2.57;;
73816;SDS011;62146;53.232;-1.304;2022-10-31T08:28:04;10.95;;;2.67;;
73816;SDS011;62146;53.232;-1.304;2022-10-31T08:30:33;11.48;;;2.65;;
73816;SDS011;62146;53.232;-1.304;2022-10-31T08:33:02;11.20;;;2.60;;
73816;SDS011;62146;53.232;-1.304;2022-10-31T08:35:43;7.78;;;2.38;;
73816;SDS011;62146;53.232;-1.304;2022-10-31T08:38:10;10.30;;;2.40;;
73816;SDS011;62146;53.232;-1.304;2022-10-31T08:40:38;12.30;;;2.40;;
73816;SDS011;62146;53.232;-1.304;2022-10-31T08:43:06;14.18;;;2.78;;
73816;SDS011;62146;53.232;-1.304;2022-10-31T08:45:40;10.85;;;2.25;;
73816;SDS011;62146;53.232;-1.304;2022-10-31T08:48:09;11.95;;;2.22;;
73816;SDS011;62146;53.232;-1.304;2022-10-31T08:50:37;13.47;;;2.70;;
73816;SDS011;62146;53.232;-1.304;2022-10-31T08:53:06;10.77;;;2.47;;
73816;SDS011;62146;53.232;-1.304;2022-10-31T08:55:35;14.82;;;2.33;;
73816;SDS011;62146;53.232;-1.304;2022-10-31T08:58:04;13.88;;;2.90;;
73816;SDS011;62146;53.232;-1.304;2022-10-31T09:00:33;11.68;;;2.42;;
73816;SDS011;62146;53.232;-1.304;2022-10-31T09:03:01;14.13;;;2.33;;
73816;SDS011;62146;53.232;-1.304;2022-10-31T09:05:30;10.10;;;2.78;;
73816;SDS011;62146;53.232;-1.304;2022-10-31T09:07:57;11.90;;;2.30;;
73816;SDS011;62146;53.232;-1.304;2022-10-31T09:10:26;10.18;;;2.28;;
73816;SDS011;62146;53.232;-1.304;2022-10-31T09:12:55;9.40;;;2.30;;
73816;SDS011;62146;53.232;-1.304;2022-10-31T09:15:26;10.80;;;2.23;;
73816;SDS011;62146;53.232;-1.304;2022-10-31T09:17:53;11.23;;;2.05;;
73816;SDS011;62146;53.232;-1.304;2022-10-31T09:20:20;10.93;;;2.85;;
73816;SDS011;62146;53.232;-1.304;2022-10-31T09:22:47;9.07;;;2.50;;
73816;SDS011;62146;53.232;-1.304;2022-10-31T09:25:21;8.32;;;2.47;;
73816;SDS011;62146;53.232;-1.304;2022-10-31T09:27:47;11.20;;;2.37;;
73816;SDS011;62146;53.232;-1.304;2022-10-31T09:30:14;12.23;;;2.40;;
73816;SDS011;62146;53.232;-1.304;2022-10-31T09:32:40;9.65;;;2.22;;
73816;SDS011;62146;53.232;-1.304;2022-10-31T09:35:07;11.60;;;2.10;;
73816;SDS011;62146;53.232;-1.304;2022-10-31T09:37:34;9.43;;;2.30;;
73816;SDS011;62146;53.232;-1.304;2022-10-31T09:40:01;10.80;;;2.37;;
73816;SDS011;62146;53.232;-1.304;2022-10-31T09:45:18;8.93;;;2.05;;
73816;SDS011;62146;53.232;-1.304;2022-10-31T09:53:53;6.57;;;1.80;;
73816;SDS011;62146;53.232;-1.304;2022-10-31T09:56:23;8.60;;;2.50;;
73816;SDS011;62146;53.232;-1.304;2022-10-31T09:58:52;11.32;;;2.25;;
73816;SDS011;62146;53.232;-1.304;2022-10-31T10:03:52;8.05;;;1.80;;
73816;SDS011;62146;53.232;-1.304;2022-10-31T10:06:25;10.57;;;2.20;;
73816;SDS011;62146;53.232;-1.304;2022-10-31T10:08:55;8.43;;;2.17;;
73816;SDS011;62146;53.232;-1.304;2022-10-31T10:17:02;8.77;;;2.03;;
73816;SDS011;62146;53.232;-1.304;2022-10-31T10:20:03;12.83;;;2.47;;
73816;SDS011;62146;53.232;-1.304;2022-10-31T10:22:48;10.20;;;2.42;;
73816;SDS011;62146;53.232;-1.304;2022-10-31T10:25:23;10.20;;;2.20;;
73816;SDS011;62146;53.232;-1.304;2022-10-31T10:30:41;10.73;;;2.35;;
73816;SDS011;62146;53.232;-1.304;2022-10-31T10:33:12;7.53;;;2.20;;
73816;SDS011;62146;53.232;-1.304;2022-10-31T10:35:46;11.38;;;2.13;;
73816;SDS011;62146;53.232;-1.304;2022-10-31T10:38:23;9.73;;;2.20;;
73816;SDS011;62146;53.232;-1.304;2022-10-31T10:40:58;9.93;;;2.33;;
73816;SDS011;62146;53.232;-1.304;2022-10-31T10:43:34;8.55;;;2.40;;
73816;SDS011;62146;53.232;-1.304;2022-10-31T10:51:38;11.95;;;2.38;;
73816;SDS011;62146;53.232;-1.304;2022-10-31T10:54:41;9.68;;;2.20;;
73816;SDS011;62146;53.232;-1.304;2022-10-31T11:00:13;11.37;;;2.13;;
73816;SDS011;62146;53.232;-1.304;2022-10-31T11:02:43;10.70;;;2.33;;
73816;SDS011;62146;53.232;-1.304;2022-10-31T11:05:18;12.40;;;2.80;;
73816;SDS011;62146;53.232;-1.304;2022-10-31T11:07:46;12.18;;;2.50;;
73816;SDS011;62146;53.232;-1.304;2022-10-31T11:10:13;10.40;;;2.70;;
73816;SDS011;62146;53.232;-1.304;2022-10-31T11:12:41;11.73;;;2.53;;
73816;SDS011;62146;53.232;-1.304;2022-10-31T11:15:24;10.77;;;2.60;;
73816;SDS011;62146;53.232;-1.304;2022-10-31T11:17:53;9.82;;;2.55;;
73816;SDS011;62146;53.232;-1.304;2022-10-31T11:23:03;8.90;;;2.85;;
73816;SDS011;62146;53.232;-1.304;2022-10-31T11:25:53;10.60;;;2.70;;
73816;SDS011;62146;53.232;-1.304;2022-10-31T11:28:20;10.48;;;2.38;;
73816;SDS011;62146;53.232;-1.304;2022-10-31T11:30:52;9.98;;;3.03;;
73816;SDS011;62146;53.232;-1.304;2022-10-31T11:33:24;9.85;;;2.40;;
73816;SDS011;62146;53.232;-1.304;2022-10-31T11:35:54;12.02;;;3.30;;
73816;SDS011;62146;53.232;-1.304;2022-10-31T11:38:24;11.77;;;3.30;;
73816;SDS011;62146;53.232;-1.304;2022-10-31T11:40:59;8.88;;;2.63;;
73816;SDS011;62146;53.232;-1.304;2022-10-31T11:43:33;9.75;;;2.60;;
73816;SDS011;62146;53.232;-1.304;2022-10-31T11:45:59;9.90;;;2.70;;
73816;SDS011;62146;53.232;-1.304;2022-10-31T11:48:35;8.02;;;2.40;;
73816;SDS011;62146;53.232;-1.304;2022-10-31T11:51:02;8.20;;;2.53;;
73816;SDS011;62146;53.232;-1.304;2022-10-31T11:53:32;10.38;;;2.80;;
73816;SDS011;62146;53.232;-1.304;2022-10-31T11:56:13;9.15;;;2.83;;
73816;SDS011;62146;53.232;-1.304;2022-10-31T11:58:41;10.77;;;3.17;;
73816;SDS011;62146;53.232;-1.304;2022-10-31T12:01:27;11.80;;;3.20;;
73816;SDS011;62146;53.232;-1.304;2022-10-31T12:04:10;10.17;;;2.60;;
73816;SDS011;62146;53.232;-1.304;2022-10-31T12:06:39;10.32;;;3.20;;
73816;SDS011;62146;53.232;-1.304;2022-10-31T12:17:48;13.30;;;3.73;;
73816;SDS011;62146;53.232;-1.304;2022-10-31T12:39:54;12.00;;;3.78;;
73816;SDS011;62146;53.232;-1.304;2022-10-31T12:45:28;10.27;;;3.70;;
73816;SDS011;62146;53.232;-1.304;2022-10-31T12:59:01;8.63;;;3.40;;
73816;SDS011;62146;53.232;-1.304;2022-10-31T13:01:37;8.70;;;3.13;;
73816;SDS011;62146;53.232;-1.304;2022-10-31T13:06:50;15.23;;;4.00;;
73816;SDS011;62146;53.232;-1.304;2022-10-31T13:09:30;11.00;;;3.50;;
73816;SDS011;62146;53.232;-1.304;2022-10-31T13:12:04;11.43;;;4.00;;
73816;SDS011;62146;53.232;-1.304;2022-10-31T13:14:40;14.13;;;3.60;;
73816;SDS011;62146;53.232;-1.304;2022-10-31T13:20:24;11.63;;;3.85;;
73816;SDS011;62146;53.232;-1.304;2022-10-31T13:22:56;14.68;;;4.13;;
73816;SDS011;62146;53.232;-1.304;2022-10-31T13:25:59;11.10;;;3.53;;
73816;SDS011;62146;53.232;-1.304;2022-10-31T13:28:35;10.43;;;4.15;;
73816;SDS011;62146;53.232;-1.304;2022-10-31T13:31:08;11.45;;;3.60;;
73816;SDS011;62146;53.232;-1.304;2022-10-31T13:36:21;8.40;;;3.40;;
73816;SDS011;62146;53.232;-1.304;2022-10-31T13:44:29;9.85;;;3.53;;
73816;SDS011;62146;53.232;-1.304;2022-10-31T13:47:03;10.88;;;3.42;;
73816;SDS011;62146;53.232;-1.304;2022-10-31T13:57:14;9.73;;;3.40;;
73816;SDS011;62146;53.232;-1.304;2022-10-31T14:02:48;9.63;;;3.22;;
73816;SDS011;62146;53.232;-1.304;2022-10-31T14:07:52;9.52;;;3.25;;
73816;SDS011;62146;53.232;-1.304;2022-10-31T14:10:22;11.25;;;3.42;;
73816;SDS011;62146;53.232;-1.304;2022-10-31T14:12:51;10.40;;;3.42;;
73816;SDS011;62146;53.232;-1.304;2022-10-31T14:17:48;9.87;;;3.30;;
73816;SDS011;62146;53.232;-1.304;2022-10-31T14:22:44;9.80;;;3.20;;
73816;SDS011;62146;53.232;-1.304;2022-10-31T14:28:30;9.90;;;3.13;;
73816;SDS011;62146;53.232;-1.304;2022-10-31T14:30:58;8.13;;;2.57;;
73816;SDS011;62146;53.232;-1.304;2022-10-31T14:33:27;7.78;;;2.60;;
73816;SDS011;62146;53.232;-1.304;2022-10-31T14:36:09;9.63;;;3.00;;
73816;SDS011;62146;53.232;-1.304;2022-10-31T14:39:21;10.20;;;2.85;;
73816;SDS011;62146;53.232;-1.304;2022-10-31T14:41:58;10.90;;;2.70;;
73816;SDS011;62146;53.232;-1.304;2022-10-31T14:47:36;8.90;;;3.00;;
73816;SDS011;62146;53.232;-1.304;2022-10-31T14:50:20;9.95;;;3.00;;
73816;SDS011;62146;53.232;-1.304;2022-10-31T14:52:54;8.40;;;2.50;;
73816;SDS011;62146;53.232;-1.304;2022-10-31T14:55:23;9.52;;;3.00;;
73816;SDS011;62146;53.232;-1.304;2022-10-31T14:57:52;11.40;;;3.10;;
73816;SDS011;62146;53.232;-1.304;2022-10-31T15:00:23;9.38;;;2.50;;
73816;SDS011;62146;53.232;-1.304;2022-10-31T15:05:51;8.27;;;2.50;;
73816;SDS011;62146;53.232;-1.304;2022-10-31T15:08:31;7.65;;;2.78;;
73816;SDS011;62146;53.232;-1.304;2022-10-31T15:11:02;9.47;;;2.77;;
73816;SDS011;62146;53.232;-1.304;2022-10-31T15:13:29;9.63;;;2.70;;
73816;SDS011;62146;53.232;-1.304;2022-10-31T15:15:56;7.88;;;2.58;;
73816;SDS011;62146;53.232;-1.304;2022-10-31T15:18:24;9.13;;;2.60;;
73816;SDS011;62146;53.232;-1.304;2022-10-31T15:20:54;9.23;;;2.55;;
73816;SDS011;62146;53.232;-1.304;2022-10-31T15:23:26;7.37;;;2.40;;
73816;SDS011;62146;53.232;-1.304;2022-10-31T15:25:59;9.98;;;2.40;;
73816;SDS011;62146;53.232;-1.304;2022-10-31T15:28:26;9.10;;;2.53;;
73816;SDS011;62146;53.232;-1.304;2022-10-31T15:30:58;7.53;;;2.38;;
73816;SDS011;62146;53.232;-1.304;2022-10-31T15:33:27;9.68;;;2.40;;
73816;SDS011;62146;53.232;-1.304;2022-10-31T15:36:03;8.97;;;2.40;;
73816;SDS011;62146;53.232;-1.304;2022-10-31T15:38:30;7.93;;;2.20;;
73816;SDS011;62146;53.232;-1.304;2022-10-31T15:41:03;8.73;;;2.47;;
73816;SDS011;62146;53.232;-1.304;2022-10-31T15:43:34;6.80;;;2.08;;
73816;SDS011;62146;53.232;-1.304;2022-10-31T15:46:04;9.18;;;2.60;;
73816;SDS011;62146;53.232;-1.304;2022-10-31T15:48:35;9.37;;;2.30;;
73816;SDS011;62146;53.232;-1.304;2022-10-31T15:51:01;7.80;;;2.30;;
73816;SDS011;62146;53.232;-1.304;2022-10-31T15:53:32;9.82;;;1.90;;
73816;SDS011;62146;53.232;-1.304;2022-10-31T15:56:24;7.88;;;1.90;;
73816;SDS011;62146;53.232;-1.304;2022-10-31T15:58:54;6.45;;;2.00;;
73816;SDS011;62146;53.232;-1.304;2022-10-31T16:04:24;6.43;;;1.90;;
73816;SDS011;62146;53.232;-1.304;2022-10-31T16:07:02;8.63;;;2.15;;
73816;SDS011;62146;53.232;-1.304;2022-10-31T16:10:01;8.05;;;1.90;;
73816;SDS011;62146;53.232;-1.304;2022-10-31T16:12:42;6.90;;;2.05;;
73816;SDS011;62146;53.232;-1.304;2022-10-31T16:15:15;8.10;;;2.40;;
73816;SDS011;62146;53.232;-1.304;2022-10-31T16:17:44;6.40;;;2.08;;
73816;SDS011;62146;53.232;-1.304;2022-10-31T16:20:21;6.65;;;1.85;;
73816;SDS011;62146;53.232;-1.304;2022-10-31T16:22:51;7.88;;;2.03;;
73816;SDS011;62146;53.232;-1.304;2022-10-31T16:27:51;8.37;;;2.20;;
73816;SDS011;62146;53.232;-1.304;2022-10-31T16:39:00;6.47;;;2.00;;
73816;SDS011;62146;53.232;-1.304;2022-10-31T16:41:27;6.77;;;1.97;;
73816;SDS011;62146;53.232;-1.304;2022-10-31T16:43:54;5.30;;;2.00;;
73816;SDS011;62146;53.232;-1.304;2022-10-31T16:46:24;8.02;;;1.98;;
73816;SDS011;62146;53.232;-1.304;2022-10-31T16:48:52;6.20;;;2.00;;
73816;SDS011;62146;53.232;-1.304;2022-10-31T16:51:20;6.00;;;2.08;;
73816;SDS011;62146;53.232;-1.304;2022-10-31T16:53:47;6.77;;;2.10;;
73816;SDS011;62146;53.232;-1.304;2022-10-31T16:56:17;7.22;;;2.20;;
73816;SDS011;62146;53.232;-1.304;2022-10-31T16:58:48;7.45;;;2.22;;
73816;SDS011;62146;53.232;-1.304;2022-10-31T17:01:14;8.30;;;2.40;;
73816;SDS011;62146;53.232;-1.304;2022-10-31T17:03:42;5.82;;;2.05;;
73816;SDS011;62146;53.232;-1.304;2022-10-31T17:06:10;7.13;;;2.20;;
73816;SDS011;62146;53.232;-1.304;2022-10-31T17:08:38;6.75;;;2.17;;
73816;SDS011;62146;53.232;-1.304;2022-10-31T17:11:05;8.32;;;2.25;;
73816;SDS011;62146;53.232;-1.304;2022-10-31T17:13:41;7.60;;;2.22;;
73816;SDS011;62146;53.232;-1.304;2022-10-31T17:16:08;6.90;;;2.58;;
73816;SDS011;62146;53.232;-1.304;2022-10-31T17:18:34;7.63;;;2.40;;
73816;SDS011;62146;53.232;-1.304;2022-10-31T17:21:02;8.63;;;2.70;;